sensor_id;sensor_type;location;lat;lon;timestamp;P1;durP1;ratioP1;P2;durP2;ratioP2
81714;SDS011;71125;44.066;2.982;2024-02-21T00:01:42;11.98;;;2.70;;
81714;SDS011;71125;44.066;2.982;2024-02-21T00:04:08;6.75;;;1.98;;
81714;SDS011;71125;44.066;2.982;2024-02-21T00:06:34;10.18;;;2.60;;
81714;SDS011;71125;44.066;2.982;2024-02-21T00:09:00;7.95;;;2.17;;
81714;SDS011;71125;44.066;2.982;2024-02-21T00:11:26;5.70;;;2.63;;
81714;SDS011;71125;44.066;2.982;2024-02-21T00:13:52;4.93;;;2.38;;
81714;SDS011;71125;44.066;2.982;2024-02-21T00:16:18;5.03;;;2.35;;
81714;SDS011;71125;44.066;2.982;2024-02-21T00:18:44;8.80;;;2.78;;
81714;SDS011;71125;44.066;2.982;2024-02-21T00:21:10;8.73;;;2.95;;
81714;SDS011;71125;44.066;2.982;2024-02-21T00:23:43;9.38;;;2.95;;
81714;SDS011;71125;44.066;2.982;2024-02-21T00:26:11;6.68;;;2.35;;
81714;SDS011;71125;44.066;2.982;2024-02-21T00:28:38;3.50;;;1.58;;
81714;SDS011;71125;44.066;2.982;2024-02-21T00:31:04;4.45;;;0.80;;
81714;SDS011;71125;44.066;2.982;2024-02-21T00:33:30;4.60;;;1.63;;
81714;SDS011;71125;44.066;2.982;2024-02-21T00:35:56;8.10;;;2.30;;
81714;SDS011;71125;44.066;2.982;2024-02-21T00:38:22;6.80;;;2.05;;
81714;SDS011;71125;44.066;2.982;2024-02-21T00:40:48;6.40;;;2.40;;
81714;SDS011;71125;44.066;2.982;2024-02-21T00:43:14;6.55;;;2.03;;
81714;SDS011;71125;44.066;2.982;2024-02-21T00:45:40;6.72;;;1.67;;
81714;SDS011;71125;44.066;2.982;2024-02-21T00:48:07;2.75;;;1.30;;
81714;SDS011;71125;44.066;2.982;2024-02-21T00:50:33;8.38;;;2.20;;
81714;SDS011;71125;44.066;2.982;2024-02-21T00:52:59;2.97;;;1.65;;
81714;SDS011;71125;44.066;2.982;2024-02-21T00:55:25;4.70;;;1.55;;
81714;SDS011;71125;44.066;2.982;2024-02-21T00:57:51;5.97;;;2.08;;
81714;SDS011;71125;44.066;2.982;2024-02-21T01:00:17;4.45;;;1.80;;
81714;SDS011;71125;44.066;2.982;2024-02-21T01:02:43;9.88;;;1.92;;
81714;SDS011;71125;44.066;2.982;2024-02-21T01:05:09;10.50;;;1.88;;
81714;SDS011;71125;44.066;2.982;2024-02-21T01:07:35;7.38;;;2.05;;
81714;SDS011;71125;44.066;2.982;2024-02-21T01:10:01;10.63;;;1.90;;
81714;SDS011;71125;44.066;2.982;2024-02-21T01:12:27;9.40;;;2.70;;
81714;SDS011;71125;44.066;2.982;2024-02-21T01:14:54;6.38;;;2.13;;
81714;SDS011;71125;44.066;2.982;2024-02-21T01:17:21;3.90;;;1.95;;
81714;SDS011;71125;44.066;2.982;2024-02-21T01:19:47;5.43;;;1.85;;
81714;SDS011;71125;44.066;2.982;2024-02-21T01:22:13;5.25;;;2.28;;
81714;SDS011;71125;44.066;2.982;2024-02-21T01:24:40;6.00;;;1.98;;
81714;SDS011;71125;44.066;2.982;2024-02-21T01:27:07;10.98;;;2.20;;
81714;SDS011;71125;44.066;2.982;2024-02-21T01:29:33;6.88;;;2.30;;
81714;SDS011;71125;44.066;2.982;2024-02-21T01:31:59;10.65;;;3.00;;
81714;SDS011;71125;44.066;2.982;2024-02-21T01:34:25;6.70;;;2.60;;
81714;SDS011;71125;44.066;2.982;2024-02-21T01:36:51;13.00;;;2.60;;
81714;SDS011;71125;44.066;2.982;2024-02-21T01:39:17;4.97;;;2.22;;
81714;SDS011;71125;44.066;2.982;2024-02-21T01:41:43;5.50;;;2.45;;
81714;SDS011;71125;44.066;2.982;2024-02-21T01:44:09;6.28;;;2.80;;
81714;SDS011;71125;44.066;2.982;2024-02-21T01:46:35;6.22;;;2.45;;
81714;SDS011;71125;44.066;2.982;2024-02-21T01:49:02;7.05;;;2.53;;
81714;SDS011;71125;44.066;2.982;2024-02-21T01:51:29;12.80;;;2.97;;
81714;SDS011;71125;44.066;2.982;2024-02-21T01:53:56;6.82;;;2.70;;
81714;SDS011;71125;44.066;2.982;2024-02-21T01:56:23;10.30;;;2.38;;
81714;SDS011;71125;44.066;2.982;2024-02-21T01:58:49;20.67;;;5.35;;
81714;SDS011;71125;44.066;2.982;2024-02-21T02:01:16;12.75;;;3.50;;
81714;SDS011;71125;44.066;2.982;2024-02-21T02:03:44;11.82;;;3.05;;
81714;SDS011;71125;44.066;2.982;2024-02-21T02:06:11;12.18;;;3.15;;
81714;SDS011;71125;44.066;2.982;2024-02-21T02:08:38;10.63;;;3.53;;
81714;SDS011;71125;44.066;2.982;2024-02-21T02:11:04;12.23;;;3.50;;
81714;SDS011;71125;44.066;2.982;2024-02-21T02:13:30;14.15;;;3.20;;
81714;SDS011;71125;44.066;2.982;2024-02-21T02:15:56;5.35;;;1.92;;
81714;SDS011;71125;44.066;2.982;2024-02-21T02:18:22;7.55;;;1.98;;
81714;SDS011;71125;44.066;2.982;2024-02-21T02:20:48;9.73;;;2.35;;
81714;SDS011;71125;44.066;2.982;2024-02-21T02:23:19;5.55;;;2.30;;
81714;SDS011;71125;44.066;2.982;2024-02-21T02:25:46;4.93;;;2.08;;
81714;SDS011;71125;44.066;2.982;2024-02-21T02:28:19;5.28;;;1.75;;
81714;SDS011;71125;44.066;2.982;2024-02-21T02:30:45;4.70;;;1.88;;
81714;SDS011;71125;44.066;2.982;2024-02-21T02:35:37;8.02;;;1.70;;
81714;SDS011;71125;44.066;2.982;2024-02-21T02:38:03;8.10;;;1.98;;
81714;SDS011;71125;44.066;2.982;2024-02-21T02:40:33;7.97;;;1.95;;
81714;SDS011;71125;44.066;2.982;2024-02-21T02:42:59;3.95;;;1.65;;
81714;SDS011;71125;44.066;2.982;2024-02-21T02:45:26;6.20;;;1.80;;
81714;SDS011;71125;44.066;2.982;2024-02-21T02:47:52;4.43;;;1.35;;
81714;SDS011;71125;44.066;2.982;2024-02-21T02:50:19;3.40;;;1.73;;
81714;SDS011;71125;44.066;2.982;2024-02-21T02:52:45;4.97;;;2.05;;
81714;SDS011;71125;44.066;2.982;2024-02-21T02:55:11;5.22;;;2.53;;
81714;SDS011;71125;44.066;2.982;2024-02-21T02:57:37;7.28;;;2.45;;
81714;SDS011;71125;44.066;2.982;2024-02-21T03:00:04;5.35;;;2.33;;
81714;SDS011;71125;44.066;2.982;2024-02-21T03:02:32;7.55;;;2.60;;
81714;SDS011;71125;44.066;2.982;2024-02-21T03:04:58;8.00;;;2.50;;
81714;SDS011;71125;44.066;2.982;2024-02-21T03:07:24;8.50;;;2.28;;
81714;SDS011;71125;44.066;2.982;2024-02-21T03:09:50;4.13;;;2.15;;
81714;SDS011;71125;44.066;2.982;2024-02-21T03:12:18;9.43;;;3.58;;
81714;SDS011;71125;44.066;2.982;2024-02-21T03:14:49;9.88;;;2.60;;
81714;SDS011;71125;44.066;2.982;2024-02-21T03:19:41;7.18;;;2.75;;
81714;SDS011;71125;44.066;2.982;2024-02-21T03:22:07;10.18;;;3.13;;
81714;SDS011;71125;44.066;2.982;2024-02-21T03:24:34;9.10;;;3.38;;
81714;SDS011;71125;44.066;2.982;2024-02-21T03:27:00;8.82;;;3.25;;
81714;SDS011;71125;44.066;2.982;2024-02-21T03:29:26;8.88;;;2.63;;
81714;SDS011;71125;44.066;2.982;2024-02-21T03:31:52;14.25;;;3.78;;
81714;SDS011;71125;44.066;2.982;2024-02-21T03:34:18;12.13;;;2.53;;
81714;SDS011;71125;44.066;2.982;2024-02-21T03:36:44;8.32;;;2.17;;
81714;SDS011;71125;44.066;2.982;2024-02-21T03:39:10;5.28;;;2.10;;
81714;SDS011;71125;44.066;2.982;2024-02-21T03:41:36;7.80;;;2.03;;
81714;SDS011;71125;44.066;2.982;2024-02-21T03:44:03;7.95;;;1.80;;
81714;SDS011;71125;44.066;2.982;2024-02-21T03:46:30;6.47;;;2.63;;
81714;SDS011;71125;44.066;2.982;2024-02-21T03:48:56;3.75;;;1.65;;
81714;SDS011;71125;44.066;2.982;2024-02-21T03:51:23;5.88;;;2.70;;
81714;SDS011;71125;44.066;2.982;2024-02-21T03:53:49;5.03;;;2.30;;
81714;SDS011;71125;44.066;2.982;2024-02-21T03:56:15;5.95;;;2.17;;
81714;SDS011;71125;44.066;2.982;2024-02-21T03:58:41;11.80;;;2.70;;
81714;SDS011;71125;44.066;2.982;2024-02-21T04:01:07;13.05;;;3.53;;
81714;SDS011;71125;44.066;2.982;2024-02-21T04:03:33;11.32;;;3.42;;
81714;SDS011;71125;44.066;2.982;2024-02-21T04:05:59;5.18;;;2.38;;
81714;SDS011;71125;44.066;2.982;2024-02-21T04:08:26;5.75;;;2.50;;
81714;SDS011;71125;44.066;2.982;2024-02-21T04:10:52;8.23;;;3.17;;
81714;SDS011;71125;44.066;2.982;2024-02-21T04:13:18;7.95;;;3.20;;
81714;SDS011;71125;44.066;2.982;2024-02-21T04:15:44;5.38;;;2.28;;
81714;SDS011;71125;44.066;2.982;2024-02-21T04:18:10;7.07;;;2.85;;
81714;SDS011;71125;44.066;2.982;2024-02-21T04:20:36;4.50;;;2.50;;
81714;SDS011;71125;44.066;2.982;2024-02-21T04:23:02;10.48;;;2.72;;
81714;SDS011;71125;44.066;2.982;2024-02-21T04:25:28;8.13;;;2.53;;
81714;SDS011;71125;44.066;2.982;2024-02-21T04:27:54;8.48;;;2.63;;
81714;SDS011;71125;44.066;2.982;2024-02-21T04:30:20;4.90;;;1.33;;
81714;SDS011;71125;44.066;2.982;2024-02-21T04:32:46;3.90;;;1.75;;
81714;SDS011;71125;44.066;2.982;2024-02-21T04:35:12;4.68;;;1.67;;
81714;SDS011;71125;44.066;2.982;2024-02-21T04:37:38;8.02;;;2.20;;
81714;SDS011;71125;44.066;2.982;2024-02-21T04:40:05;5.53;;;2.08;;
81714;SDS011;71125;44.066;2.982;2024-02-21T04:44:57;5.40;;;1.67;;
81714;SDS011;71125;44.066;2.982;2024-02-21T04:47:23;4.10;;;1.45;;
81714;SDS011;71125;44.066;2.982;2024-02-21T04:49:50;6.75;;;2.17;;
81714;SDS011;71125;44.066;2.982;2024-02-21T04:52:16;4.38;;;2.20;;
81714;SDS011;71125;44.066;2.982;2024-02-21T04:54:42;7.80;;;2.70;;
81714;SDS011;71125;44.066;2.982;2024-02-21T04:57:08;6.72;;;2.90;;
81714;SDS011;71125;44.066;2.982;2024-02-21T04:59:35;8.07;;;2.30;;
81714;SDS011;71125;44.066;2.982;2024-02-21T05:02:01;10.05;;;3.70;;
81714;SDS011;71125;44.066;2.982;2024-02-21T05:04:27;7.97;;;3.63;;
81714;SDS011;71125;44.066;2.982;2024-02-21T05:06:53;10.32;;;3.15;;
81714;SDS011;71125;44.066;2.982;2024-02-21T05:09:19;6.57;;;2.85;;
81714;SDS011;71125;44.066;2.982;2024-02-21T05:14:12;7.65;;;1.85;;
81714;SDS011;71125;44.066;2.982;2024-02-21T05:16:39;4.57;;;2.13;;
81714;SDS011;71125;44.066;2.982;2024-02-21T05:21:31;5.65;;;1.75;;
81714;SDS011;71125;44.066;2.982;2024-02-21T05:23:57;11.52;;;2.85;;
81714;SDS011;71125;44.066;2.982;2024-02-21T05:26:24;6.65;;;2.20;;
81714;SDS011;71125;44.066;2.982;2024-02-21T05:28:50;8.52;;;2.30;;
81714;SDS011;71125;44.066;2.982;2024-02-21T05:31:17;9.32;;;2.50;;
81714;SDS011;71125;44.066;2.982;2024-02-21T05:33:44;8.02;;;2.17;;
81714;SDS011;71125;44.066;2.982;2024-02-21T05:36:10;6.10;;;2.38;;
81714;SDS011;71125;44.066;2.982;2024-02-21T05:38:36;12.40;;;2.70;;
81714;SDS011;71125;44.066;2.982;2024-02-21T05:41:02;19.55;;;7.72;;
81714;SDS011;71125;44.066;2.982;2024-02-21T05:43:28;7.00;;;2.90;;
81714;SDS011;71125;44.066;2.982;2024-02-21T05:45:54;10.35;;;3.03;;
81714;SDS011;71125;44.066;2.982;2024-02-21T05:48:21;19.90;;;4.25;;
81714;SDS011;71125;44.066;2.982;2024-02-21T05:50:47;12.80;;;3.30;;
81714;SDS011;71125;44.066;2.982;2024-02-21T05:53:13;6.72;;;3.10;;
81714;SDS011;71125;44.066;2.982;2024-02-21T05:55:40;8.13;;;3.28;;
81714;SDS011;71125;44.066;2.982;2024-02-21T05:58:06;11.85;;;3.85;;
81714;SDS011;71125;44.066;2.982;2024-02-21T06:00:32;13.05;;;4.47;;
81714;SDS011;71125;44.066;2.982;2024-02-21T06:05:24;10.18;;;2.35;;
81714;SDS011;71125;44.066;2.982;2024-02-21T06:07:50;8.50;;;2.70;;
81714;SDS011;71125;44.066;2.982;2024-02-21T06:10:16;26.20;;;8.88;;
81714;SDS011;71125;44.066;2.982;2024-02-21T06:12:43;34.30;;;10.82;;
81714;SDS011;71125;44.066;2.982;2024-02-21T06:15:09;21.08;;;7.63;;
81714;SDS011;71125;44.066;2.982;2024-02-21T06:17:35;15.73;;;3.63;;
81714;SDS011;71125;44.066;2.982;2024-02-21T06:20:01;10.13;;;3.95;;
81714;SDS011;71125;44.066;2.982;2024-02-21T06:22:27;7.32;;;2.85;;
81714;SDS011;71125;44.066;2.982;2024-02-21T06:24:53;4.55;;;1.95;;
81714;SDS011;71125;44.066;2.982;2024-02-21T06:27:19;6.85;;;2.47;;
81714;SDS011;71125;44.066;2.982;2024-02-21T06:29:45;12.93;;;5.75;;
81714;SDS011;71125;44.066;2.982;2024-02-21T06:32:11;14.30;;;4.82;;
81714;SDS011;71125;44.066;2.982;2024-02-21T06:34:38;10.05;;;3.33;;
81714;SDS011;71125;44.066;2.982;2024-02-21T06:37:04;3.75;;;2.13;;
81714;SDS011;71125;44.066;2.982;2024-02-21T06:39:30;8.93;;;2.28;;
81714;SDS011;71125;44.066;2.982;2024-02-21T06:41:56;4.57;;;2.40;;
81714;SDS011;71125;44.066;2.982;2024-02-21T06:44:22;10.82;;;2.55;;
81714;SDS011;71125;44.066;2.982;2024-02-21T06:46:48;4.57;;;2.38;;
81714;SDS011;71125;44.066;2.982;2024-02-21T06:49:14;5.25;;;2.20;;
81714;SDS011;71125;44.066;2.982;2024-02-21T06:51:43;10.57;;;2.97;;
81714;SDS011;71125;44.066;2.982;2024-02-21T06:54:09;11.23;;;2.90;;
81714;SDS011;71125;44.066;2.982;2024-02-21T06:56:36;8.55;;;3.40;;
81714;SDS011;71125;44.066;2.982;2024-02-21T07:01:31;7.03;;;2.38;;
81714;SDS011;71125;44.066;2.982;2024-02-21T07:03:57;7.03;;;2.65;;
81714;SDS011;71125;44.066;2.982;2024-02-21T07:06:23;3.15;;;1.60;;
81714;SDS011;71125;44.066;2.982;2024-02-21T07:08:49;6.70;;;2.47;;
81714;SDS011;71125;44.066;2.982;2024-02-21T07:11:16;4.30;;;2.60;;
81714;SDS011;71125;44.066;2.982;2024-02-21T07:13:42;8.00;;;2.28;;
81714;SDS011;71125;44.066;2.982;2024-02-21T07:16:08;8.63;;;2.30;;
81714;SDS011;71125;44.066;2.982;2024-02-21T07:18:34;3.65;;;1.67;;
81714;SDS011;71125;44.066;2.982;2024-02-21T07:21:00;7.20;;;2.25;;
81714;SDS011;71125;44.066;2.982;2024-02-21T07:23:26;4.18;;;2.00;;
81714;SDS011;71125;44.066;2.982;2024-02-21T07:25:53;4.65;;;1.75;;
81714;SDS011;71125;44.066;2.982;2024-02-21T07:28:19;5.82;;;2.35;;
81714;SDS011;71125;44.066;2.982;2024-02-21T07:30:45;8.13;;;2.53;;
81714;SDS011;71125;44.066;2.982;2024-02-21T07:33:11;8.65;;;2.60;;
81714;SDS011;71125;44.066;2.982;2024-02-21T07:35:37;6.18;;;2.28;;
81714;SDS011;71125;44.066;2.982;2024-02-21T07:38:06;7.07;;;2.63;;
81714;SDS011;71125;44.066;2.982;2024-02-21T07:40:33;7.82;;;2.15;;
81714;SDS011;71125;44.066;2.982;2024-02-21T07:43:00;4.55;;;1.90;;
81714;SDS011;71125;44.066;2.982;2024-02-21T07:45:27;5.90;;;2.50;;
81714;SDS011;71125;44.066;2.982;2024-02-21T07:47:53;7.88;;;1.70;;
81714;SDS011;71125;44.066;2.982;2024-02-21T07:50:19;10.18;;;2.28;;
81714;SDS011;71125;44.066;2.982;2024-02-21T07:52:45;7.38;;;2.33;;
81714;SDS011;71125;44.066;2.982;2024-02-21T07:55:11;3.85;;;1.52;;
81714;SDS011;71125;44.066;2.982;2024-02-21T07:57:37;4.78;;;1.67;;
81714;SDS011;71125;44.066;2.982;2024-02-21T08:00:03;10.52;;;2.15;;
81714;SDS011;71125;44.066;2.982;2024-02-21T08:04:56;4.45;;;2.25;;
81714;SDS011;71125;44.066;2.982;2024-02-21T08:07:22;6.78;;;2.35;;
81714;SDS011;71125;44.066;2.982;2024-02-21T08:09:48;5.18;;;1.98;;
81714;SDS011;71125;44.066;2.982;2024-02-21T08:12:14;8.80;;;2.50;;
81714;SDS011;71125;44.066;2.982;2024-02-21T08:14:40;5.10;;;2.00;;
81714;SDS011;71125;44.066;2.982;2024-02-21T08:17:15;7.28;;;2.00;;
81714;SDS011;71125;44.066;2.982;2024-02-21T08:19:44;6.07;;;2.58;;
81714;SDS011;71125;44.066;2.982;2024-02-21T08:22:10;6.10;;;1.95;;
81714;SDS011;71125;44.066;2.982;2024-02-21T08:24:36;4.90;;;2.03;;
81714;SDS011;71125;44.066;2.982;2024-02-21T08:27:03;7.07;;;1.85;;
81714;SDS011;71125;44.066;2.982;2024-02-21T08:31:55;3.92;;;1.75;;
81714;SDS011;71125;44.066;2.982;2024-02-21T08:34:21;5.00;;;2.08;;
81714;SDS011;71125;44.066;2.982;2024-02-21T08:36:47;6.43;;;1.90;;
81714;SDS011;71125;44.066;2.982;2024-02-21T08:39:26;2.90;;;1.45;;
81714;SDS011;71125;44.066;2.982;2024-02-21T08:42:22;5.50;;;1.92;;
81714;SDS011;71125;44.066;2.982;2024-02-21T08:47:14;3.05;;;1.45;;
81714;SDS011;71125;44.066;2.982;2024-02-21T08:52:06;4.20;;;1.90;;
81714;SDS011;71125;44.066;2.982;2024-02-21T08:56:58;3.72;;;1.70;;
81714;SDS011;71125;44.066;2.982;2024-02-21T08:59:25;5.15;;;2.03;;
81714;SDS011;71125;44.066;2.982;2024-02-21T09:01:51;4.22;;;1.42;;
81714;SDS011;71125;44.066;2.982;2024-02-21T09:04:21;9.40;;;2.78;;
81714;SDS011;71125;44.066;2.982;2024-02-21T09:06:47;4.70;;;2.13;;
81714;SDS011;71125;44.066;2.982;2024-02-21T09:09:13;6.55;;;2.28;;
81714;SDS011;71125;44.066;2.982;2024-02-21T09:11:39;9.52;;;2.60;;
81714;SDS011;71125;44.066;2.982;2024-02-21T09:14:08;10.48;;;2.42;;
81714;SDS011;71125;44.066;2.982;2024-02-21T09:16:34;8.02;;;2.17;;
81714;SDS011;71125;44.066;2.982;2024-02-21T09:21:26;9.93;;;2.85;;
81714;SDS011;71125;44.066;2.982;2024-02-21T09:23:56;10.98;;;3.88;;
81714;SDS011;71125;44.066;2.982;2024-02-21T09:26:22;6.05;;;2.65;;
81714;SDS011;71125;44.066;2.982;2024-02-21T09:31:16;6.10;;;2.15;;
81714;SDS011;71125;44.066;2.982;2024-02-21T09:36:08;5.18;;;1.67;;
81714;SDS011;71125;44.066;2.982;2024-02-21T09:38:35;6.38;;;1.90;;
81714;SDS011;71125;44.066;2.982;2024-02-21T09:43:27;7.20;;;2.20;;
81714;SDS011;71125;44.066;2.982;2024-02-21T09:45:54;4.32;;;1.50;;
81714;SDS011;71125;44.066;2.982;2024-02-21T09:48:30;3.55;;;1.45;;
81714;SDS011;71125;44.066;2.982;2024-02-21T09:51:04;3.20;;;1.55;;
81714;SDS011;71125;44.066;2.982;2024-02-21T09:53:31;3.17;;;1.30;;
81714;SDS011;71125;44.066;2.982;2024-02-21T09:56:01;5.38;;;2.05;;
81714;SDS011;71125;44.066;2.982;2024-02-21T09:58:28;5.10;;;2.10;;
81714;SDS011;71125;44.066;2.982;2024-02-21T10:00:54;6.15;;;1.50;;
81714;SDS011;71125;44.066;2.982;2024-02-21T10:03:22;5.63;;;1.05;;
81714;SDS011;71125;44.066;2.982;2024-02-21T10:05:48;4.72;;;2.15;;
81714;SDS011;71125;44.066;2.982;2024-02-21T10:08:15;2.70;;;1.13;;
81714;SDS011;71125;44.066;2.982;2024-02-21T10:10:45;2.55;;;1.23;;
81714;SDS011;71125;44.066;2.982;2024-02-21T10:13:21;5.47;;;1.67;;
81714;SDS011;71125;44.066;2.982;2024-02-21T10:15:47;5.85;;;1.92;;
81714;SDS011;71125;44.066;2.982;2024-02-21T10:18:15;4.03;;;1.60;;
81714;SDS011;71125;44.066;2.982;2024-02-21T10:20:43;3.90;;;1.40;;
81714;SDS011;71125;44.066;2.982;2024-02-21T10:23:10;3.42;;;1.63;;
81714;SDS011;71125;44.066;2.982;2024-02-21T10:25:36;4.68;;;1.65;;
81714;SDS011;71125;44.066;2.982;2024-02-21T10:28:13;4.55;;;1.85;;
81714;SDS011;71125;44.066;2.982;2024-02-21T10:30:49;7.05;;;2.13;;
81714;SDS011;71125;44.066;2.982;2024-02-21T10:33:15;4.25;;;1.73;;
81714;SDS011;71125;44.066;2.982;2024-02-21T10:35:41;4.78;;;1.60;;
81714;SDS011;71125;44.066;2.982;2024-02-21T10:38:07;4.38;;;1.58;;
81714;SDS011;71125;44.066;2.982;2024-02-21T10:40:33;3.95;;;1.83;;
81714;SDS011;71125;44.066;2.982;2024-02-21T10:43:00;5.13;;;1.73;;
81714;SDS011;71125;44.066;2.982;2024-02-21T10:45:29;7.95;;;2.17;;
81714;SDS011;71125;44.066;2.982;2024-02-21T10:47:56;3.42;;;1.40;;
81714;SDS011;71125;44.066;2.982;2024-02-21T10:50:27;4.65;;;1.48;;
81714;SDS011;71125;44.066;2.982;2024-02-21T10:55:26;4.80;;;1.60;;
81714;SDS011;71125;44.066;2.982;2024-02-21T10:57:55;3.47;;;1.50;;
81714;SDS011;71125;44.066;2.982;2024-02-21T11:00:22;4.75;;;1.50;;
81714;SDS011;71125;44.066;2.982;2024-02-21T11:02:52;4.00;;;1.60;;
81714;SDS011;71125;44.066;2.982;2024-02-21T11:05:18;3.10;;;1.40;;
81714;SDS011;71125;44.066;2.982;2024-02-21T11:07:44;3.85;;;1.50;;
81714;SDS011;71125;44.066;2.982;2024-02-21T11:10:23;4.25;;;2.20;;
81714;SDS011;71125;44.066;2.982;2024-02-21T11:12:52;6.47;;;2.75;;
81714;SDS011;71125;44.066;2.982;2024-02-21T11:15:24;4.32;;;1.58;;
81714;SDS011;71125;44.066;2.982;2024-02-21T11:17:54;4.60;;;1.33;;
81714;SDS011;71125;44.066;2.982;2024-02-21T11:20:20;3.53;;;1.38;;
81714;SDS011;71125;44.066;2.982;2024-02-21T11:22:46;3.65;;;1.60;;
81714;SDS011;71125;44.066;2.982;2024-02-21T11:25:21;3.38;;;1.15;;
81714;SDS011;71125;44.066;2.982;2024-02-21T11:27:47;2.33;;;0.98;;
81714;SDS011;71125;44.066;2.982;2024-02-21T11:30:13;3.83;;;1.25;;
81714;SDS011;71125;44.066;2.982;2024-02-21T11:32:39;4.28;;;1.10;;
81714;SDS011;71125;44.066;2.982;2024-02-21T11:35:09;2.50;;;1.10;;
81714;SDS011;71125;44.066;2.982;2024-02-21T11:37:44;5.57;;;1.45;;
81714;SDS011;71125;44.066;2.982;2024-02-21T11:40:11;3.83;;;0.95;;
81714;SDS011;71125;44.066;2.982;2024-02-21T11:42:40;1.63;;;0.98;;
81714;SDS011;71125;44.066;2.982;2024-02-21T11:45:07;3.85;;;1.27;;
81714;SDS011;71125;44.066;2.982;2024-02-21T11:47:36;3.33;;;1.23;;
81714;SDS011;71125;44.066;2.982;2024-02-21T11:50:09;2.63;;;1.20;;
81714;SDS011;71125;44.066;2.982;2024-02-21T11:52:35;4.57;;;1.30;;
81714;SDS011;71125;44.066;2.982;2024-02-21T11:55:01;4.15;;;1.10;;
81714;SDS011;71125;44.066;2.982;2024-02-21T11:57:29;4.38;;;1.33;;
81714;SDS011;71125;44.066;2.982;2024-02-21T11:59:56;3.78;;;1.20;;
81714;SDS011;71125;44.066;2.982;2024-02-21T12:02:26;2.80;;;0.90;;
81714;SDS011;71125;44.066;2.982;2024-02-21T12:04:52;4.57;;;1.42;;
81714;SDS011;71125;44.066;2.982;2024-02-21T12:07:19;3.42;;;1.30;;
81714;SDS011;71125;44.066;2.982;2024-02-21T12:09:48;6.25;;;1.25;;
81714;SDS011;71125;44.066;2.982;2024-02-21T12:12:20;3.17;;;1.10;;
81714;SDS011;71125;44.066;2.982;2024-02-21T12:14:54;2.70;;;0.98;;
81714;SDS011;71125;44.066;2.982;2024-02-21T12:17:23;2.25;;;0.80;;
81714;SDS011;71125;44.066;2.982;2024-02-21T12:19:50;3.83;;;1.00;;
81714;SDS011;71125;44.066;2.982;2024-02-21T12:22:17;2.00;;;0.93;;
81714;SDS011;71125;44.066;2.982;2024-02-21T12:24:49;1.92;;;0.90;;
81714;SDS011;71125;44.066;2.982;2024-02-21T12:27:19;4.97;;;1.10;;
81714;SDS011;71125;44.066;2.982;2024-02-21T12:29:45;5.03;;;1.40;;
81714;SDS011;71125;44.066;2.982;2024-02-21T12:32:11;1.90;;;0.98;;
81714;SDS011;71125;44.066;2.982;2024-02-21T12:34:37;2.55;;;0.90;;
81714;SDS011;71125;44.066;2.982;2024-02-21T12:37:03;1.63;;;0.75;;
81714;SDS011;71125;44.066;2.982;2024-02-21T12:39:29;3.75;;;0.93;;
81714;SDS011;71125;44.066;2.982;2024-02-21T12:41:56;2.78;;;1.00;;
81714;SDS011;71125;44.066;2.982;2024-02-21T12:44:23;4.97;;;1.00;;
81714;SDS011;71125;44.066;2.982;2024-02-21T12:46:49;4.30;;;1.00;;
81714;SDS011;71125;44.066;2.982;2024-02-21T12:49:17;3.08;;;1.00;;
81714;SDS011;71125;44.066;2.982;2024-02-21T12:51:44;1.77;;;0.88;;
81714;SDS011;71125;44.066;2.982;2024-02-21T12:54:13;3.13;;;0.90;;
81714;SDS011;71125;44.066;2.982;2024-02-21T12:56:39;2.58;;;0.85;;
81714;SDS011;71125;44.066;2.982;2024-02-21T12:59:06;2.33;;;0.93;;
81714;SDS011;71125;44.066;2.982;2024-02-21T13:01:35;7.05;;;1.50;;
81714;SDS011;71125;44.066;2.982;2024-02-21T13:04:01;2.58;;;1.15;;
81714;SDS011;71125;44.066;2.982;2024-02-21T13:06:28;3.78;;;1.20;;
81714;SDS011;71125;44.066;2.982;2024-02-21T13:08:54;2.83;;;1.33;;
81714;SDS011;71125;44.066;2.982;2024-02-21T13:11:20;2.50;;;0.88;;
81714;SDS011;71125;44.066;2.982;2024-02-21T13:13:46;1.95;;;0.80;;
81714;SDS011;71125;44.066;2.982;2024-02-21T13:16:13;2.47;;;0.68;;
81714;SDS011;71125;44.066;2.982;2024-02-21T13:18:39;3.55;;;0.80;;
81714;SDS011;71125;44.066;2.982;2024-02-21T13:21:07;2.13;;;0.55;;
81714;SDS011;71125;44.066;2.982;2024-02-21T13:23:34;3.97;;;0.60;;
81714;SDS011;71125;44.066;2.982;2024-02-21T13:26:00;1.90;;;0.70;;
81714;SDS011;71125;44.066;2.982;2024-02-21T13:28:26;2.08;;;0.70;;
81714;SDS011;71125;44.066;2.982;2024-02-21T13:30:52;1.13;;;0.50;;
81714;SDS011;71125;44.066;2.982;2024-02-21T13:33:18;1.83;;;0.70;;
81714;SDS011;71125;44.066;2.982;2024-02-21T13:35:44;2.20;;;0.55;;
81714;SDS011;71125;44.066;2.982;2024-02-21T13:38:11;1.20;;;0.60;;
81714;SDS011;71125;44.066;2.982;2024-02-21T13:40:37;2.50;;;0.50;;
81714;SDS011;71125;44.066;2.982;2024-02-21T13:43:03;2.05;;;0.63;;
81714;SDS011;71125;44.066;2.982;2024-02-21T13:45:29;1.13;;;0.35;;
81714;SDS011;71125;44.066;2.982;2024-02-21T13:47:56;5.80;;;3.13;;
81714;SDS011;71125;44.066;2.982;2024-02-21T13:50:23;1.45;;;0.50;;
81714;SDS011;71125;44.066;2.982;2024-02-21T13:52:49;5.15;;;0.57;;
81714;SDS011;71125;44.066;2.982;2024-02-21T13:55:15;1.00;;;0.45;;
81714;SDS011;71125;44.066;2.982;2024-02-21T13:57:42;2.88;;;0.50;;
81714;SDS011;71125;44.066;2.982;2024-02-21T14:00:09;1.02;;;0.45;;
81714;SDS011;71125;44.066;2.982;2024-02-21T14:02:36;1.77;;;0.52;;
81714;SDS011;71125;44.066;2.982;2024-02-21T14:05:02;1.95;;;0.50;;
81714;SDS011;71125;44.066;2.982;2024-02-21T14:07:30;1.83;;;0.32;;
81714;SDS011;71125;44.066;2.982;2024-02-21T14:09:58;1.42;;;0.40;;
81714;SDS011;71125;44.066;2.982;2024-02-21T14:12:24;1.17;;;0.40;;
81714;SDS011;71125;44.066;2.982;2024-02-21T14:14:50;4.50;;;2.83;;
81714;SDS011;71125;44.066;2.982;2024-02-21T14:17:17;1.38;;;0.60;;
81714;SDS011;71125;44.066;2.982;2024-02-21T14:19:43;1.50;;;0.52;;
81714;SDS011;71125;44.066;2.982;2024-02-21T14:22:09;3.92;;;0.63;;
81714;SDS011;71125;44.066;2.982;2024-02-21T14:24:36;0.85;;;0.30;;
81714;SDS011;71125;44.066;2.982;2024-02-21T14:27:03;3.80;;;0.45;;
81714;SDS011;71125;44.066;2.982;2024-02-21T14:29:29;1.40;;;0.40;;
81714;SDS011;71125;44.066;2.982;2024-02-21T14:31:55;2.10;;;0.40;;
81714;SDS011;71125;44.066;2.982;2024-02-21T14:34:21;3.47;;;0.68;;
81714;SDS011;71125;44.066;2.982;2024-02-21T14:36:47;1.00;;;0.47;;
81714;SDS011;71125;44.066;2.982;2024-02-21T14:39:13;2.92;;;0.60;;
81714;SDS011;71125;44.066;2.982;2024-02-21T14:41:39;1.83;;;0.60;;
81714;SDS011;71125;44.066;2.982;2024-02-21T14:44:05;3.78;;;0.47;;
81714;SDS011;71125;44.066;2.982;2024-02-21T14:46:34;3.13;;;0.65;;
81714;SDS011;71125;44.066;2.982;2024-02-21T14:49:00;2.63;;;0.65;;
81714;SDS011;71125;44.066;2.982;2024-02-21T14:51:27;1.52;;;0.70;;
81714;SDS011;71125;44.066;2.982;2024-02-21T14:53:54;1.88;;;0.68;;
81714;SDS011;71125;44.066;2.982;2024-02-21T14:56:20;1.90;;;0.80;;
81714;SDS011;71125;44.066;2.982;2024-02-21T14:58:46;1.52;;;0.60;;
81714;SDS011;71125;44.066;2.982;2024-02-21T15:01:12;2.03;;;0.55;;
81714;SDS011;71125;44.066;2.982;2024-02-21T15:03:38;1.75;;;0.77;;
81714;SDS011;71125;44.066;2.982;2024-02-21T15:06:04;1.35;;;0.60;;
81714;SDS011;71125;44.066;2.982;2024-02-21T15:08:30;1.52;;;0.45;;
81714;SDS011;71125;44.066;2.982;2024-02-21T15:10:56;1.08;;;0.60;;
81714;SDS011;71125;44.066;2.982;2024-02-21T15:13:23;1.75;;;0.70;;
81714;SDS011;71125;44.066;2.982;2024-02-21T15:15:49;0.65;;;0.40;;
81714;SDS011;71125;44.066;2.982;2024-02-21T15:18:16;1.40;;;0.57;;
81714;SDS011;71125;44.066;2.982;2024-02-21T15:20:43;2.28;;;0.68;;
81714;SDS011;71125;44.066;2.982;2024-02-21T15:23:09;2.33;;;0.60;;
81714;SDS011;71125;44.066;2.982;2024-02-21T15:25:35;3.45;;;0.88;;